Bookmark and Share
Track history (hours):
 

Eurocargo Venezia

Last reported at 2014-Apr-18 03:33 UTC. Time now 2014-Apr-18 10:43 UTC.
Position N 38°25' E 015°34'.

Length 200 m; draft 7.4 m.

Type: Ship (hazmat cat A). MMSI: 247297200.

NotesDate/timePositionNaut miles runAvg speedWind from/ knotsBaromVisibWave heightAir tempDewpointWater temp
2014-Apr-18 03:33N 38°25' E 015°34'1413.9
2014-Apr-18 02:33N 38°11' E 015°37'1915.5
2014-Apr-18 01:18N 37°53' E 015°27'153 3.0
2014-Apr-15 22:29N 40°15' E 014°12'1617.8
2014-Apr-15 21:33N 40°28' E 014°00'1817.7
2014-Apr-15 20:33N 40°41' E 013°45'1716.7
2014-Apr-15 19:33N 40°53' E 013°29'20615.9
2014-Apr-15 06:34N 43°21' E 010°15'1211.8
2014-Apr-15 05:34N 43°33' E 010°17'2 1.0
2014-Apr-15 03:33N 43°35' E 010°18'0 0.0
2014-Apr-15 02:33N 43°35' E 010°18'0 0.0
2014-Apr-15 01:33N 43°35' E 010°18'0 0.0
2014-Apr-15 00:33N 43°35' E 010°18'0 0.0
2014-Apr-14 23:33N 43°35' E 010°18'3 3.3
2014-Apr-14 22:34N 43°32' E 010°16'1414.5
2014-Apr-14 21:34N 43°32' E 009°56'1918.9
2014-Apr-14 20:34N 43°46' E 009°38'1918.7
2014-Apr-14 19:34N 44°00' E 009°21'1918.9
2014-Apr-14 18:34N 44°15' E 009°04'1212.4
2014-Apr-14 17:34N 44°24' E 008°53'0 0.1
2014-Apr-14 16:30N 44°24' E 008°53'0 0.0
2014-Apr-14 14:30N 44°24' E 008°53'0 0.0
2014-Apr-14 13:30N 44°24' E 008°53'0 0.0
2014-Apr-14 11:30N 44°24' E 008°53'0 0.0
2014-Apr-14 10:30N 44°24' E 008°53'0 0.0
2014-Apr-14 09:30N 44°24' E 008°53'0 0.0
2014-Apr-14 07:30N 44°24' E 008°53'4 3.8
2014-Apr-14 06:33N 44°22' E 008°57'1716.6
2014-Apr-14 05:34N 44°09' E 009°12'51713.3
2014-Apr-12 14:33N 36°55' E 015°21'1818.4
2014-Apr-12 13:33N 36°38' E 015°12'423 8.8
2014-Apr-10 13:33N 42°45' E 010°38'1817.9
2014-Apr-10 12:33N 43°00' E 010°26'1818.3
2014-Apr-10 11:33N 43°17' E 010°17'1514.6
2014-Apr-10 10:33N 43°32' E 010°15'3 3.3
2014-Apr-10 09:31N 43°35' E 010°18'0 0.0
2014-Apr-10 08:31N 43°35' E 010°18'0 0.0
2014-Apr-10 07:31N 43°35' E 010°18'0 0.0
2014-Apr-10 06:31N 43°35' E 010°18'0 0.0
2014-Apr-10 05:31N 43°35' E 010°18'0 0.0
2014-Apr-10 04:31N 43°35' E 010°18'0 0.0
2014-Apr-10 03:31N 43°35' E 010°18'0 0.0
2014-Apr-10 02:31N 43°35' E 010°18'1 1.1
2014-Apr-10 01:33N 43°34' E 010°18'8 8.2
2014-Apr-10 00:33N 43°30' E 010°08'1717.1
2014-Apr-09 23:33N 43°39' E 009°48'1817.6
2014-Apr-09 22:33N 43°52' E 009°31'1817.7
2014-Apr-09 21:33N 44°05' E 009°16'1717.4
2014-Apr-09 20:33N 44°19' E 008°60'7 7.4
2014-Apr-09 19:33N 44°24' E 008°53'0 0.0
2014-Apr-09 18:33N 44°24' E 008°53'0 0.0
2014-Apr-09 17:33N 44°24' E 008°53'0 0.0
2014-Apr-09 16:33N 44°24' E 008°53'0 0.0
2014-Apr-09 15:30N 44°24' E 008°53'0 0.0
2014-Apr-09 14:33N 44°24' E 008°53'0 0.0
2014-Apr-09 13:33N 44°24' E 008°53'0 0.0
2014-Apr-09 12:24N 44°24' E 008°53'0 0.0
2014-Apr-09 11:33N 44°24' E 008°53'6 6.1
2014-Apr-09 10:34N 44°20' E 008°59'1918.7
2014-Apr-09 09:34N 44°06' E 009°16'1918.7
2014-Apr-09 08:34N 43°52' E 009°34'1818.5
2014-Apr-09 07:34N 43°38' E 009°51'1818.3
2014-Apr-09 06:34N 43°24' E 010°06'1918.6
2014-Apr-09 05:34N 43°08' E 010°19'28819.2
2014-Apr-08 14:32N 39°27' E 014°24'8419.2
2014-Apr-08 10:10N 38°24' E 015°36'1013.9
2014-Apr-08 09:27N 38°14' E 015°38'  

Dump ship's entire track history

sailing weather and tide predictions

Eurocargo Venezia — IBKS — position and weather